sensor_id;sensor_type;location;lat;lon;timestamp;P1;durP1;ratioP1;P2;durP2;ratioP2
27728;SDS011;15126;42.186;24.340;2023-03-16T00:02:17;11.50;;;8.97;;
27728;SDS011;15126;42.186;24.340;2023-03-16T00:04:47;11.53;;;9.83;;
27728;SDS011;15126;42.186;24.340;2023-03-16T00:07:23;13.83;;;9.67;;
27728;SDS011;15126;42.186;24.340;2023-03-16T00:09:50;9.67;;;8.63;;
27728;SDS011;15126;42.186;24.340;2023-03-16T00:12:18;8.80;;;7.90;;
27728;SDS011;15126;42.186;24.340;2023-03-16T00:14:47;11.00;;;9.90;;
27728;SDS011;15126;42.186;24.340;2023-03-16T00:17:15;9.23;;;8.43;;
27728;SDS011;15126;42.186;24.340;2023-03-16T00:19:44;10.67;;;9.60;;
27728;SDS011;15126;42.186;24.340;2023-03-16T00:22:14;10.43;;;9.40;;
27728;SDS011;15126;42.186;24.340;2023-03-16T00:24:41;12.67;;;10.83;;
27728;SDS011;15126;42.186;24.340;2023-03-16T00:27:09;11.67;;;9.87;;
27728;SDS011;15126;42.186;24.340;2023-03-16T00:29:39;10.20;;;9.13;;
27728;SDS011;15126;42.186;24.340;2023-03-16T00:32:11;11.23;;;9.97;;
27728;SDS011;15126;42.186;24.340;2023-03-16T00:34:42;11.13;;;8.87;;
27728;SDS011;15126;42.186;24.340;2023-03-16T00:37:10;12.50;;;9.53;;
27728;SDS011;15126;42.186;24.340;2023-03-16T00:39:41;10.10;;;9.20;;
27728;SDS011;15126;42.186;24.340;2023-03-16T00:42:08;10.13;;;9.13;;
27728;SDS011;15126;42.186;24.340;2023-03-16T00:44:37;11.43;;;7.17;;
27728;SDS011;15126;42.186;24.340;2023-03-16T00:47:06;7.47;;;6.80;;
27728;SDS011;15126;42.186;24.340;2023-03-16T00:49:34;6.53;;;6.00;;
27728;SDS011;15126;42.186;24.340;2023-03-16T00:52:01;7.50;;;6.80;;
27728;SDS011;15126;42.186;24.340;2023-03-16T00:54:30;6.43;;;5.83;;
27728;SDS011;15126;42.186;24.340;2023-03-16T00:56:59;6.47;;;5.90;;
27728;SDS011;15126;42.186;24.340;2023-03-16T00:59:28;5.93;;;5.40;;
27728;SDS011;15126;42.186;24.340;2023-03-16T01:01:55;4.47;;;4.17;;
27728;SDS011;15126;42.186;24.340;2023-03-16T01:04:22;4.90;;;4.27;;
27728;SDS011;15126;42.186;24.340;2023-03-16T01:06:49;4.47;;;4.07;;
27728;SDS011;15126;42.186;24.340;2023-03-16T01:09:16;3.90;;;3.53;;
27728;SDS011;15126;42.186;24.340;2023-03-16T01:11:42;4.13;;;3.73;;
27728;SDS011;15126;42.186;24.340;2023-03-16T01:14:10;3.97;;;3.67;;
27728;SDS011;15126;42.186;24.340;2023-03-16T01:16:37;4.10;;;3.80;;
27728;SDS011;15126;42.186;24.340;2023-03-16T01:19:04;4.73;;;4.23;;
27728;SDS011;15126;42.186;24.340;2023-03-16T01:21:31;5.57;;;3.87;;
27728;SDS011;15126;42.186;24.340;2023-03-16T01:24:01;4.57;;;4.17;;
27728;SDS011;15126;42.186;24.340;2023-03-16T01:26:28;3.43;;;3.23;;
27728;SDS011;15126;42.186;24.340;2023-03-16T01:28:55;3.80;;;3.50;;
27728;SDS011;15126;42.186;24.340;2023-03-16T01:31:23;3.00;;;2.70;;
27728;SDS011;15126;42.186;24.340;2023-03-16T01:33:52;3.70;;;3.40;;
27728;SDS011;15126;42.186;24.340;2023-03-16T01:36:19;3.93;;;3.63;;
27728;SDS011;15126;42.186;24.340;2023-03-16T01:38:46;3.20;;;2.97;;
27728;SDS011;15126;42.186;24.340;2023-03-16T01:41:13;3.40;;;3.10;;
27728;SDS011;15126;42.186;24.340;2023-03-16T01:43:40;3.70;;;3.40;;
27728;SDS011;15126;42.186;24.340;2023-03-16T01:46:16;4.03;;;3.27;;
27728;SDS011;15126;42.186;24.340;2023-03-16T01:49:00;3.23;;;2.90;;
27728;SDS011;15126;42.186;24.340;2023-03-16T01:51:34;4.23;;;3.00;;
27728;SDS011;15126;42.186;24.340;2023-03-16T01:54:08;3.13;;;2.90;;
27728;SDS011;15126;42.186;24.340;2023-03-16T01:56:41;3.37;;;3.07;;
27728;SDS011;15126;42.186;24.340;2023-03-16T01:59:12;3.90;;;3.20;;
27728;SDS011;15126;42.186;24.340;2023-03-16T02:01:41;3.13;;;2.83;;
27728;SDS011;15126;42.186;24.340;2023-03-16T02:07:13;3.33;;;2.80;;
27728;SDS011;15126;42.186;24.340;2023-03-16T02:09:43;3.03;;;2.80;;
27728;SDS011;15126;42.186;24.340;2023-03-16T02:12:12;3.13;;;2.93;;
27728;SDS011;15126;42.186;24.340;2023-03-16T02:14:43;3.27;;;2.97;;
27728;SDS011;15126;42.186;24.340;2023-03-16T02:17:11;3.73;;;3.43;;
27728;SDS011;15126;42.186;24.340;2023-03-16T02:19:42;3.50;;;3.20;;
27728;SDS011;15126;42.186;24.340;2023-03-16T02:22:16;3.20;;;2.90;;
27728;SDS011;15126;42.186;24.340;2023-03-16T02:24:44;3.47;;;2.50;;
27728;SDS011;15126;42.186;24.340;2023-03-16T02:27:11;3.07;;;2.87;;
27728;SDS011;15126;42.186;24.340;2023-03-16T02:29:57;2.57;;;2.37;;
27728;SDS011;15126;42.186;24.340;2023-03-16T02:32:29;2.27;;;2.07;;
27728;SDS011;15126;42.186;24.340;2023-03-16T02:34:58;3.07;;;2.77;;
27728;SDS011;15126;42.186;24.340;2023-03-16T02:37:26;3.10;;;2.90;;
27728;SDS011;15126;42.186;24.340;2023-03-16T02:39:53;2.67;;;2.43;;
27728;SDS011;15126;42.186;24.340;2023-03-16T02:42:21;2.57;;;2.27;;
27728;SDS011;15126;42.186;24.340;2023-03-16T02:44:52;5.57;;;2.73;;
27728;SDS011;15126;42.186;24.340;2023-03-16T02:47:27;2.80;;;2.60;;
27728;SDS011;15126;42.186;24.340;2023-03-16T02:49:58;2.37;;;2.17;;
27728;SDS011;15126;42.186;24.340;2023-03-16T02:52:26;2.50;;;2.30;;
27728;SDS011;15126;42.186;24.340;2023-03-16T02:54:53;2.87;;;2.60;;
27728;SDS011;15126;42.186;24.340;2023-03-16T02:57:20;3.20;;;2.90;;
27728;SDS011;15126;42.186;24.340;2023-03-16T02:59:47;2.73;;;2.03;;
27728;SDS011;15126;42.186;24.340;2023-03-16T03:02:14;2.70;;;2.50;;
27728;SDS011;15126;42.186;24.340;2023-03-16T03:04:42;2.80;;;2.50;;
27728;SDS011;15126;42.186;24.340;2023-03-16T03:07:10;2.63;;;2.37;;
27728;SDS011;15126;42.186;24.340;2023-03-16T03:09:38;2.47;;;2.27;;
27728;SDS011;15126;42.186;24.340;2023-03-16T03:12:06;2.70;;;2.50;;
27728;SDS011;15126;42.186;24.340;2023-03-16T03:14:34;4.53;;;2.27;;
27728;SDS011;15126;42.186;24.340;2023-03-16T03:17:02;2.83;;;2.53;;
27728;SDS011;15126;42.186;24.340;2023-03-16T03:19:29;3.50;;;2.07;;
27728;SDS011;15126;42.186;24.340;2023-03-16T03:21:59;7.70;;;5.63;;
27728;SDS011;15126;42.186;24.340;2023-03-16T03:24:28;5.20;;;4.40;;
27728;SDS011;15126;42.186;24.340;2023-03-16T03:26:56;3.53;;;3.23;;
27728;SDS011;15126;42.186;24.340;2023-03-16T03:29:23;2.87;;;2.67;;
27728;SDS011;15126;42.186;24.340;2023-03-16T03:31:49;3.63;;;3.33;;
27728;SDS011;15126;42.186;24.340;2023-03-16T03:34:16;4.60;;;4.20;;
27728;SDS011;15126;42.186;24.340;2023-03-16T03:36:43;3.93;;;3.63;;
27728;SDS011;15126;42.186;24.340;2023-03-16T03:39:11;4.37;;;3.97;;
27728;SDS011;15126;42.186;24.340;2023-03-16T03:41:38;4.90;;;4.50;;
27728;SDS011;15126;42.186;24.340;2023-03-16T03:44:05;4.83;;;4.23;;
27728;SDS011;15126;42.186;24.340;2023-03-16T03:46:32;3.53;;;3.23;;
27728;SDS011;15126;42.186;24.340;2023-03-16T03:48:58;3.90;;;2.77;;
27728;SDS011;15126;42.186;24.340;2023-03-16T03:51:28;5.27;;;4.77;;
27728;SDS011;15126;42.186;24.340;2023-03-16T03:53:55;8.07;;;6.20;;
27728;SDS011;15126;42.186;24.340;2023-03-16T03:56:23;7.87;;;7.07;;
27728;SDS011;15126;42.186;24.340;2023-03-16T03:58:50;5.50;;;5.07;;
27728;SDS011;15126;42.186;24.340;2023-03-16T04:01:17;4.30;;;4.00;;
27728;SDS011;15126;42.186;24.340;2023-03-16T04:03:44;3.97;;;3.30;;
27728;SDS011;15126;42.186;24.340;2023-03-16T04:06:11;2.60;;;2.40;;
27728;SDS011;15126;42.186;24.340;2023-03-16T04:08:38;2.80;;;2.23;;
27728;SDS011;15126;42.186;24.340;2023-03-16T04:11:04;2.63;;;2.43;;
27728;SDS011;15126;42.186;24.340;2023-03-16T04:13:33;6.03;;;4.70;;
27728;SDS011;15126;42.186;24.340;2023-03-16T04:16:00;3.10;;;2.80;;
27728;SDS011;15126;42.186;24.340;2023-03-16T04:18:27;2.20;;;2.00;;
27728;SDS011;15126;42.186;24.340;2023-03-16T04:21:02;3.70;;;3.40;;
27728;SDS011;15126;42.186;24.340;2023-03-16T04:23:30;2.20;;;2.07;;
27728;SDS011;15126;42.186;24.340;2023-03-16T04:25:57;1.93;;;1.83;;
27728;SDS011;15126;42.186;24.340;2023-03-16T04:28:24;1.53;;;1.30;;
27728;SDS011;15126;42.186;24.340;2023-03-16T04:30:53;1.40;;;1.30;;
27728;SDS011;15126;42.186;24.340;2023-03-16T04:33:20;1.80;;;1.70;;
27728;SDS011;15126;42.186;24.340;2023-03-16T04:35:47;1.33;;;1.23;;
27728;SDS011;15126;42.186;24.340;2023-03-16T04:38:14;1.67;;;1.57;;
27728;SDS011;15126;42.186;24.340;2023-03-16T04:40:41;2.37;;;2.17;;
27728;SDS011;15126;42.186;24.340;2023-03-16T04:43:08;1.87;;;1.77;;
27728;SDS011;15126;42.186;24.340;2023-03-16T04:45:34;2.47;;;2.27;;
27728;SDS011;15126;42.186;24.340;2023-03-16T04:48:03;1.80;;;1.70;;
27728;SDS011;15126;42.186;24.340;2023-03-16T04:50:30;1.70;;;1.60;;
27728;SDS011;15126;42.186;24.340;2023-03-16T04:52:57;1.80;;;1.70;;
27728;SDS011;15126;42.186;24.340;2023-03-16T04:55:24;3.03;;;2.73;;
27728;SDS011;15126;42.186;24.340;2023-03-16T04:57:51;1.93;;;1.57;;
27728;SDS011;15126;42.186;24.340;2023-03-16T05:00:18;1.10;;;1.00;;
27728;SDS011;15126;42.186;24.340;2023-03-16T05:02:46;1.73;;;1.63;;
27728;SDS011;15126;42.186;24.340;2023-03-16T05:05:14;1.80;;;1.70;;
27728;SDS011;15126;42.186;24.340;2023-03-16T05:07:42;1.50;;;1.37;;
27728;SDS011;15126;42.186;24.340;2023-03-16T05:10:09;1.30;;;1.20;;
27728;SDS011;15126;42.186;24.340;2023-03-16T05:12:37;1.53;;;1.43;;
27728;SDS011;15126;42.186;24.340;2023-03-16T05:15:05;1.53;;;1.33;;
27728;SDS011;15126;42.186;24.340;2023-03-16T05:17:32;1.57;;;1.47;;
27728;SDS011;15126;42.186;24.340;2023-03-16T05:20:00;1.93;;;1.47;;
27728;SDS011;15126;42.186;24.340;2023-03-16T05:22:33;2.93;;;1.87;;
27728;SDS011;15126;42.186;24.340;2023-03-16T05:25:00;1.90;;;1.80;;
27728;SDS011;15126;42.186;24.340;2023-03-16T05:27:28;2.70;;;2.07;;
27728;SDS011;15126;42.186;24.340;2023-03-16T05:29:55;2.10;;;1.90;;
27728;SDS011;15126;42.186;24.340;2023-03-16T05:32:22;1.90;;;1.47;;
27728;SDS011;15126;42.186;24.340;2023-03-16T05:34:49;4.47;;;3.23;;
27728;SDS011;15126;42.186;24.340;2023-03-16T05:37:17;1.77;;;1.67;;
27728;SDS011;15126;42.186;24.340;2023-03-16T05:39:45;2.50;;;2.23;;
27728;SDS011;15126;42.186;24.340;2023-03-16T05:42:12;3.33;;;2.20;;
27728;SDS011;15126;42.186;24.340;2023-03-16T05:44:39;1.70;;;1.60;;
27728;SDS011;15126;42.186;24.340;2023-03-16T05:47:06;2.03;;;1.27;;
27728;SDS011;15126;42.186;24.340;2023-03-16T05:49:32;9.47;;;2.23;;
27728;SDS011;15126;42.186;24.340;2023-03-16T05:51:59;1.53;;;1.20;;
27728;SDS011;15126;42.186;24.340;2023-03-16T05:54:26;1.57;;;1.37;;
27728;SDS011;15126;42.186;24.340;2023-03-16T05:56:54;3.00;;;2.60;;
27728;SDS011;15126;42.186;24.340;2023-03-16T05:59:21;3.67;;;2.13;;
27728;SDS011;15126;42.186;24.340;2023-03-16T06:01:48;1.53;;;1.40;;
27728;SDS011;15126;42.186;24.340;2023-03-16T06:04:15;2.80;;;1.70;;
27728;SDS011;15126;42.186;24.340;2023-03-16T06:06:41;2.50;;;2.30;;
27728;SDS011;15126;42.186;24.340;2023-03-16T06:09:08;5.43;;;3.30;;
27728;SDS011;15126;42.186;24.340;2023-03-16T06:11:35;8.43;;;4.40;;
27728;SDS011;15126;42.186;24.340;2023-03-16T06:14:06;2.40;;;2.10;;
27728;SDS011;15126;42.186;24.340;2023-03-16T06:16:33;1.87;;;1.50;;
27728;SDS011;15126;42.186;24.340;2023-03-16T06:19:00;6.53;;;3.13;;
27728;SDS011;15126;42.186;24.340;2023-03-16T06:21:27;3.47;;;2.03;;
27728;SDS011;15126;42.186;24.340;2023-03-16T06:23:53;1.20;;;1.10;;
27728;SDS011;15126;42.186;24.340;2023-03-16T06:26:20;2.77;;;1.30;;
27728;SDS011;15126;42.186;24.340;2023-03-16T06:28:47;1.73;;;1.60;;
27728;SDS011;15126;42.186;24.340;2023-03-16T06:31:15;4.17;;;1.70;;
27728;SDS011;15126;42.186;24.340;2023-03-16T06:33:42;3.17;;;2.20;;
27728;SDS011;15126;42.186;24.340;2023-03-16T06:36:09;3.80;;;1.60;;
27728;SDS011;15126;42.186;24.340;2023-03-16T06:38:36;2.43;;;1.27;;
27728;SDS011;15126;42.186;24.340;2023-03-16T06:41:02;1.70;;;1.37;;
27728;SDS011;15126;42.186;24.340;2023-03-16T06:43:29;4.67;;;2.50;;
27728;SDS011;15126;42.186;24.340;2023-03-16T06:45:57;1.47;;;1.20;;
27728;SDS011;15126;42.186;24.340;2023-03-16T06:48:25;5.20;;;1.83;;
27728;SDS011;15126;42.186;24.340;2023-03-16T06:50:52;3.00;;;1.17;;
27728;SDS011;15126;42.186;24.340;2023-03-16T06:53:19;1.67;;;1.57;;
27728;SDS011;15126;42.186;24.340;2023-03-16T06:55:46;5.00;;;3.20;;
27728;SDS011;15126;42.186;24.340;2023-03-16T06:58:13;3.57;;;2.60;;
27728;SDS011;15126;42.186;24.340;2023-03-16T07:00:39;11.17;;;5.87;;
27728;SDS011;15126;42.186;24.340;2023-03-16T07:03:06;16.80;;;7.97;;
27728;SDS011;15126;42.186;24.340;2023-03-16T07:05:35;7.10;;;4.13;;
27728;SDS011;15126;42.186;24.340;2023-03-16T07:08:01;3.07;;;2.83;;
27728;SDS011;15126;42.186;24.340;2023-03-16T07:10:29;6.50;;;2.97;;
27728;SDS011;15126;42.186;24.340;2023-03-16T07:12:57;5.13;;;4.10;;
27728;SDS011;15126;42.186;24.340;2023-03-16T07:15:23;11.03;;;7.40;;
27728;SDS011;15126;42.186;24.340;2023-03-16T07:17:50;1.67;;;1.57;;
27728;SDS011;15126;42.186;24.340;2023-03-16T07:20:18;1.77;;;1.67;;
27728;SDS011;15126;42.186;24.340;2023-03-16T07:22:47;2.83;;;1.63;;
27728;SDS011;15126;42.186;24.340;2023-03-16T07:25:13;1.60;;;1.50;;
27728;SDS011;15126;42.186;24.340;2023-03-16T07:27:40;6.97;;;2.33;;
27728;SDS011;15126;42.186;24.340;2023-03-16T07:30:10;2.20;;;2.00;;
27728;SDS011;15126;42.186;24.340;2023-03-16T07:32:38;5.20;;;1.80;;
27728;SDS011;15126;42.186;24.340;2023-03-16T07:35:06;2.10;;;1.67;;
27728;SDS011;15126;42.186;24.340;2023-03-16T07:37:33;2.50;;;1.73;;
27728;SDS011;15126;42.186;24.340;2023-03-16T07:40:02;2.13;;;1.40;;
27728;SDS011;15126;42.186;24.340;2023-03-16T07:42:33;3.97;;;3.40;;
27728;SDS011;15126;42.186;24.340;2023-03-16T07:45:00;4.27;;;2.70;;
27728;SDS011;15126;42.186;24.340;2023-03-16T07:47:27;4.30;;;3.03;;
27728;SDS011;15126;42.186;24.340;2023-03-16T07:50:03;4.23;;;3.10;;
27728;SDS011;15126;42.186;24.340;2023-03-16T07:52:33;5.07;;;2.50;;
27728;SDS011;15126;42.186;24.340;2023-03-16T07:55:00;4.77;;;3.50;;
27728;SDS011;15126;42.186;24.340;2023-03-16T07:57:29;2.93;;;1.80;;
27728;SDS011;15126;42.186;24.340;2023-03-16T07:59:56;3.20;;;2.27;;
27728;SDS011;15126;42.186;24.340;2023-03-16T08:02:23;3.87;;;2.10;;
27728;SDS011;15126;42.186;24.340;2023-03-16T08:04:50;4.73;;;2.53;;
27728;SDS011;15126;42.186;24.340;2023-03-16T08:07:17;2.23;;;1.43;;
27728;SDS011;15126;42.186;24.340;2023-03-16T08:09:44;1.47;;;1.30;;
27728;SDS011;15126;42.186;24.340;2023-03-16T08:12:11;2.77;;;1.73;;
27728;SDS011;15126;42.186;24.340;2023-03-16T08:14:39;5.60;;;2.00;;
27728;SDS011;15126;42.186;24.340;2023-03-16T08:17:06;2.70;;;1.70;;
27728;SDS011;15126;42.186;24.340;2023-03-16T08:19:33;3.87;;;2.40;;
27728;SDS011;15126;42.186;24.340;2023-03-16T08:22:00;4.47;;;1.60;;
27728;SDS011;15126;42.186;24.340;2023-03-16T08:24:27;3.93;;;1.50;;
27728;SDS011;15126;42.186;24.340;2023-03-16T08:26:55;3.43;;;1.40;;
27728;SDS011;15126;42.186;24.340;2023-03-16T08:29:23;1.53;;;1.40;;
27728;SDS011;15126;42.186;24.340;2023-03-16T08:31:52;3.30;;;1.80;;
27728;SDS011;15126;42.186;24.340;2023-03-16T08:34:20;2.50;;;1.50;;
27728;SDS011;15126;42.186;24.340;2023-03-16T08:36:47;5.10;;;1.90;;
27728;SDS011;15126;42.186;24.340;2023-03-16T08:39:14;1.73;;;1.33;;
27728;SDS011;15126;42.186;24.340;2023-03-16T08:41:41;2.33;;;1.67;;
27728;SDS011;15126;42.186;24.340;2023-03-16T08:44:10;3.93;;;1.67;;
27728;SDS011;15126;42.186;24.340;2023-03-16T08:46:37;3.60;;;1.40;;
27728;SDS011;15126;42.186;24.340;2023-03-16T08:49:06;1.37;;;1.27;;
27728;SDS011;15126;42.186;24.340;2023-03-16T08:51:33;3.43;;;1.93;;
27728;SDS011;15126;42.186;24.340;2023-03-16T08:53:59;7.53;;;1.70;;
27728;SDS011;15126;42.186;24.340;2023-03-16T08:56:26;2.27;;;1.70;;
27728;SDS011;15126;42.186;24.340;2023-03-16T08:58:54;2.77;;;1.30;;
27728;SDS011;15126;42.186;24.340;2023-03-16T09:01:21;3.27;;;1.20;;
27728;SDS011;15126;42.186;24.340;2023-03-16T09:03:49;1.50;;;1.33;;
27728;SDS011;15126;42.186;24.340;2023-03-16T09:06:18;3.87;;;1.40;;
27728;SDS011;15126;42.186;24.340;2023-03-16T09:08:46;2.17;;;1.90;;
27728;SDS011;15126;42.186;24.340;2023-03-16T09:11:14;6.73;;;1.37;;
27728;SDS011;15126;42.186;24.340;2023-03-16T09:13:42;2.53;;;2.30;;
27728;SDS011;15126;42.186;24.340;2023-03-16T09:16:10;5.50;;;5.00;;
27728;SDS011;15126;42.186;24.340;2023-03-16T09:18:40;7.80;;;7.03;;
27728;SDS011;15126;42.186;24.340;2023-03-16T09:21:07;15.33;;;8.57;;
27728;SDS011;15126;42.186;24.340;2023-03-16T09:23:38;2.13;;;1.93;;
27728;SDS011;15126;42.186;24.340;2023-03-16T09:26:07;3.67;;;1.90;;
27728;SDS011;15126;42.186;24.340;2023-03-16T09:28:35;14.13;;;12.00;;
27728;SDS011;15126;42.186;24.340;2023-03-16T09:31:04;4.03;;;3.63;;
27728;SDS011;15126;42.186;24.340;2023-03-16T09:33:32;6.83;;;4.83;;
27728;SDS011;15126;42.186;24.340;2023-03-16T09:36:00;9.97;;;4.60;;
27728;SDS011;15126;42.186;24.340;2023-03-16T09:38:28;19.27;;;12.40;;
27728;SDS011;15126;42.186;24.340;2023-03-16T09:40:58;7.47;;;5.13;;
27728;SDS011;15126;42.186;24.340;2023-03-16T09:43:39;33.77;;;18.50;;
27728;SDS011;15126;42.186;24.340;2023-03-16T09:46:20;19.77;;;11.57;;
27728;SDS011;15126;42.186;24.340;2023-03-16T09:56:21;26.53;;;12.97;;
27728;SDS011;15126;42.186;24.340;2023-03-16T09:58:56;18.03;;;6.63;;
27728;SDS011;15126;42.186;24.340;2023-03-16T10:01:25;11.97;;;7.47;;
27728;SDS011;15126;42.186;24.340;2023-03-16T10:04:08;65.33;;;40.43;;
27728;SDS011;15126;42.186;24.340;2023-03-16T10:06:46;32.67;;;17.97;;
27728;SDS011;15126;42.186;24.340;2023-03-16T10:09:24;21.23;;;12.33;;
27728;SDS011;15126;42.186;24.340;2023-03-16T10:11:59;30.77;;;20.03;;
27728;SDS011;15126;42.186;24.340;2023-03-16T10:14:29;10.17;;;7.20;;
27728;SDS011;15126;42.186;24.340;2023-03-16T10:17:05;9.50;;;6.70;;
27728;SDS011;15126;42.186;24.340;2023-03-16T10:19:40;11.27;;;9.27;;
27728;SDS011;15126;42.186;24.340;2023-03-16T10:22:14;14.80;;;10.57;;
27728;SDS011;15126;42.186;24.340;2023-03-16T10:24:49;10.77;;;7.80;;
27728;SDS011;15126;42.186;24.340;2023-03-16T10:27:25;5.77;;;4.00;;
27728;SDS011;15126;42.186;24.340;2023-03-16T10:29:55;17.93;;;11.67;;
27728;SDS011;15126;42.186;24.340;2023-03-16T10:32:22;8.07;;;7.23;;
27728;SDS011;15126;42.186;24.340;2023-03-16T10:34:55;15.00;;;13.63;;
27728;SDS011;15126;42.186;24.340;2023-03-16T10:37:25;3.60;;;2.93;;
27728;SDS011;15126;42.186;24.340;2023-03-16T10:39:56;20.37;;;14.53;;
27728;SDS011;15126;42.186;24.340;2023-03-16T10:42:26;4.07;;;3.03;;
27728;SDS011;15126;42.186;24.340;2023-03-16T10:44:56;5.53;;;3.73;;
27728;SDS011;15126;42.186;24.340;2023-03-16T10:47:27;4.77;;;4.23;;
27728;SDS011;15126;42.186;24.340;2023-03-16T10:49:54;4.03;;;2.23;;
27728;SDS011;15126;42.186;24.340;2023-03-16T10:52:22;4.97;;;3.13;;
27728;SDS011;15126;42.186;24.340;2023-03-16T10:54:53;5.40;;;3.93;;
27728;SDS011;15126;42.186;24.340;2023-03-16T10:57:23;4.27;;;3.57;;
27728;SDS011;15126;42.186;24.340;2023-03-16T10:59:59;7.13;;;4.97;;
27728;SDS011;15126;42.186;24.340;2023-03-16T11:02:40;4.10;;;3.47;;
27728;SDS011;15126;42.186;24.340;2023-03-16T11:05:12;3.43;;;2.50;;
27728;SDS011;15126;42.186;24.340;2023-03-16T11:07:46;2.90;;;2.60;;
27728;SDS011;15126;42.186;24.340;2023-03-16T11:10:23;4.97;;;3.57;;
27728;SDS011;15126;42.186;24.340;2023-03-16T11:12:59;6.57;;;3.53;;
27728;SDS011;15126;42.186;24.340;2023-03-16T11:15:34;3.17;;;2.87;;
27728;SDS011;15126;42.186;24.340;2023-03-16T11:18:03;5.33;;;3.90;;
27728;SDS011;15126;42.186;24.340;2023-03-16T11:20:33;6.83;;;4.20;;
27728;SDS011;15126;42.186;24.340;2023-03-16T11:23:01;5.57;;;5.07;;
27728;SDS011;15126;42.186;24.340;2023-03-16T11:25:28;6.83;;;2.50;;
27728;SDS011;15126;42.186;24.340;2023-03-16T11:28:02;4.10;;;1.80;;
27728;SDS011;15126;42.186;24.340;2023-03-16T11:30:38;8.63;;;6.43;;
27728;SDS011;15126;42.186;24.340;2023-03-16T11:33:07;4.13;;;3.43;;
27728;SDS011;15126;42.186;24.340;2023-03-16T11:35:59;6.83;;;4.80;;
27728;SDS011;15126;42.186;24.340;2023-03-16T11:38:51;5.40;;;3.70;;
27728;SDS011;15126;42.186;24.340;2023-03-16T11:41:52;3.47;;;2.70;;
27728;SDS011;15126;42.186;24.340;2023-03-16T11:44:33;4.50;;;3.70;;
27728;SDS011;15126;42.186;24.340;2023-03-16T11:47:05;3.53;;;3.10;;
27728;SDS011;15126;42.186;24.340;2023-03-16T11:49:47;8.30;;;4.53;;
27728;SDS011;15126;42.186;24.340;2023-03-16T11:52:24;17.37;;;7.97;;
27728;SDS011;15126;42.186;24.340;2023-03-16T11:55:02;6.80;;;5.10;;
27728;SDS011;15126;42.186;24.340;2023-03-16T11:57:44;5.77;;;4.50;;
27728;SDS011;15126;42.186;24.340;2023-03-16T12:00:23;1.67;;;1.57;;
27728;SDS011;15126;42.186;24.340;2023-03-16T12:03:03;7.73;;;6.03;;
27728;SDS011;15126;42.186;24.340;2023-03-16T12:05:54;4.80;;;3.37;;
27728;SDS011;15126;42.186;24.340;2023-03-16T12:08:28;5.20;;;3.47;;
27728;SDS011;15126;42.186;24.340;2023-03-16T12:11:06;5.47;;;3.90;;
27728;SDS011;15126;42.186;24.340;2023-03-16T12:16:36;2.77;;;1.90;;
27728;SDS011;15126;42.186;24.340;2023-03-16T12:19:11;3.43;;;1.97;;
27728;SDS011;15126;42.186;24.340;2023-03-16T12:21:44;4.13;;;3.73;;
27728;SDS011;15126;42.186;24.340;2023-03-16T12:24:15;3.27;;;2.60;;
27728;SDS011;15126;42.186;24.340;2023-03-16T12:26:46;2.10;;;1.90;;
27728;SDS011;15126;42.186;24.340;2023-03-16T12:29:15;3.47;;;2.57;;
27728;SDS011;15126;42.186;24.340;2023-03-16T12:31:55;2.70;;;1.80;;
27728;SDS011;15126;42.186;24.340;2023-03-16T12:34:28;10.27;;;7.50;;
27728;SDS011;15126;42.186;24.340;2023-03-16T12:37:05;2.80;;;2.60;;
27728;SDS011;15126;42.186;24.340;2023-03-16T12:42:49;2.80;;;2.10;;
27728;SDS011;15126;42.186;24.340;2023-03-16T12:45:32;2.93;;;2.63;;
27728;SDS011;15126;42.186;24.340;2023-03-16T12:48:12;2.20;;;2.00;;
27728;SDS011;15126;42.186;24.340;2023-03-16T12:50:46;2.63;;;2.13;;
27728;SDS011;15126;42.186;24.340;2023-03-16T12:56:11;3.73;;;2.40;;
27728;SDS011;15126;42.186;24.340;2023-03-16T12:58:44;2.60;;;2.40;;
27728;SDS011;15126;42.186;24.340;2023-03-16T13:01:13;2.77;;;1.93;;
27728;SDS011;15126;42.186;24.340;2023-03-16T13:03:45;3.03;;;2.60;;
27728;SDS011;15126;42.186;24.340;2023-03-16T13:06:17;3.40;;;2.90;;
27728;SDS011;15126;42.186;24.340;2023-03-16T13:08:47;3.50;;;3.20;;
27728;SDS011;15126;42.186;24.340;2023-03-16T13:11:18;7.67;;;3.07;;
27728;SDS011;15126;42.186;24.340;2023-03-16T13:13:48;2.83;;;2.57;;
27728;SDS011;15126;42.186;24.340;2023-03-16T13:16:25;2.50;;;2.30;;
27728;SDS011;15126;42.186;24.340;2023-03-16T13:18:55;3.17;;;2.83;;
27728;SDS011;15126;42.186;24.340;2023-03-16T13:21:58;5.10;;;3.00;;
27728;SDS011;15126;42.186;24.340;2023-03-16T13:24:35;3.67;;;2.80;;
27728;SDS011;15126;42.186;24.340;2023-03-16T13:27:05;2.47;;;2.27;;
27728;SDS011;15126;42.186;24.340;2023-03-16T13:29:50;4.03;;;3.17;;
27728;SDS011;15126;42.186;24.340;2023-03-16T13:32:19;2.87;;;2.67;;
27728;SDS011;15126;42.186;24.340;2023-03-16T13:34:49;3.30;;;2.80;;
27728;SDS011;15126;42.186;24.340;2023-03-16T13:37:19;2.80;;;2.60;;
27728;SDS011;15126;42.186;24.340;2023-03-16T13:39:51;2.70;;;2.47;;
27728;SDS011;15126;42.186;24.340;2023-03-16T13:42:19;2.60;;;2.50;;
27728;SDS011;15126;42.186;24.340;2023-03-16T13:44:47;4.67;;;2.90;;
27728;SDS011;15126;42.186;24.340;2023-03-16T13:47:18;3.37;;;2.80;;
27728;SDS011;15126;42.186;24.340;2023-03-16T13:49:46;3.83;;;3.00;;
27728;SDS011;15126;42.186;24.340;2023-03-16T13:52:19;3.97;;;3.17;;
27728;SDS011;15126;42.186;24.340;2023-03-16T13:54:50;3.80;;;3.20;;
27728;SDS011;15126;42.186;24.340;2023-03-16T13:57:18;5.03;;;3.80;;
27728;SDS011;15126;42.186;24.340;2023-03-16T13:59:47;5.67;;;3.40;;
27728;SDS011;15126;42.186;24.340;2023-03-16T14:02:16;4.60;;;3.20;;
27728;SDS011;15126;42.186;24.340;2023-03-16T14:04:44;5.10;;;3.23;;
27728;SDS011;15126;42.186;24.340;2023-03-16T14:07:15;4.63;;;3.40;;
27728;SDS011;15126;42.186;24.340;2023-03-16T14:09:44;3.57;;;3.27;;
27728;SDS011;15126;42.186;24.340;2023-03-16T14:12:14;6.27;;;4.03;;
27728;SDS011;15126;42.186;24.340;2023-03-16T14:14:44;4.73;;;3.50;;
27728;SDS011;15126;42.186;24.340;2023-03-16T14:17:15;4.00;;;3.70;;
27728;SDS011;15126;42.186;24.340;2023-03-16T14:19:44;4.63;;;4.33;;
27728;SDS011;15126;42.186;24.340;2023-03-16T14:22:13;5.90;;;4.30;;
27728;SDS011;15126;42.186;24.340;2023-03-16T14:24:45;4.17;;;3.77;;
27728;SDS011;15126;42.186;24.340;2023-03-16T14:27:21;4.87;;;3.80;;
27728;SDS011;15126;42.186;24.340;2023-03-16T14:29:53;3.40;;;3.10;;
27728;SDS011;15126;42.186;24.340;2023-03-16T14:32:25;3.90;;;3.60;;
27728;SDS011;15126;42.186;24.340;2023-03-16T14:34:59;5.13;;;4.07;;
27728;SDS011;15126;42.186;24.340;2023-03-16T14:37:35;3.47;;;3.17;;
27728;SDS011;15126;42.186;24.340;2023-03-16T14:40:03;4.60;;;4.07;;
27728;SDS011;15126;42.186;24.340;2023-03-16T14:42:32;6.60;;;5.57;;
27728;SDS011;15126;42.186;24.340;2023-03-16T14:45:01;4.50;;;4.10;;
27728;SDS011;15126;42.186;24.340;2023-03-16T14:47:35;5.83;;;4.70;;
27728;SDS011;15126;42.186;24.340;2023-03-16T14:50:07;7.90;;;4.30;;
27728;SDS011;15126;42.186;24.340;2023-03-16T14:52:40;5.73;;;4.67;;
27728;SDS011;15126;42.186;24.340;2023-03-16T14:55:10;59.57;;;35.23;;
27728;SDS011;15126;42.186;24.340;2023-03-16T14:57:39;42.60;;;22.70;;
27728;SDS011;15126;42.186;24.340;2023-03-16T15:00:07;65.47;;;32.30;;
27728;SDS011;15126;42.186;24.340;2023-03-16T15:02:36;23.07;;;13.90;;
27728;SDS011;15126;42.186;24.340;2023-03-16T15:05:06;12.67;;;5.00;;
27728;SDS011;15126;42.186;24.340;2023-03-16T15:07:35;5.60;;;4.20;;
27728;SDS011;15126;42.186;24.340;2023-03-16T15:10:07;4.77;;;4.37;;